createdAt,value
2023-02-27T00:00:23.648Z,4.599
2023-02-27T00:01:22.701Z,4.199
2023-02-27T00:02:22.905Z,4.400
2023-02-27T00:03:22.890Z,4.900
2023-02-27T00:04:22.125Z,4.699
2023-02-27T00:05:22.444Z,4.599
2023-02-27T00:06:22.321Z,4.400
2023-02-27T00:07:22.852Z,4.599
2023-02-27T00:08:21.883Z,4.5
2023-02-27T00:09:22.075Z,4.699
2023-02-27T00:10:23.306Z,4.599
2023-02-27T00:11:22.378Z,4.800
2023-02-27T00:12:22.742Z,4.900
2023-02-27T00:13:22.075Z,4.5
2023-02-27T00:14:22.637Z,4.699
2023-02-27T00:16:22.108Z,4.5
2023-02-27T00:17:22.239Z,4.699
2023-02-27T00:18:22.316Z,4.400
2023-02-27T00:20:22.103Z,4.099
2023-02-27T00:21:23.044Z,4.199
2023-02-27T00:22:22.319Z,4.300
2023-02-27T00:23:21.800Z,4.400
2023-02-27T00:24:21.753Z,4.300
2023-02-27T00:25:41.419Z,4.199
2023-02-27T00:27:22.521Z,3.900
2023-02-27T00:28:22.492Z,4
2023-02-27T00:29:21.900Z,3.900
2023-02-27T00:30:23.193Z,3.700
2023-02-27T00:31:22.455Z,3.799
2023-02-27T00:33:21.804Z,3.900
2023-02-27T00:35:22.277Z,4.099
2023-02-27T00:36:22.542Z,3.599
2023-02-27T00:37:22.254Z,3.799
2023-02-27T00:39:22.709Z,3.599
2023-02-27T00:40:22.445Z,4.099
2023-02-27T00:41:22.681Z,3.5
2023-02-27T00:42:22.886Z,3.599
2023-02-27T00:43:22.512Z,3.700
2023-02-27T00:44:21.998Z,3.299
2023-02-27T00:45:21.979Z,3.799
2023-02-27T00:46:22.807Z,3.5
2023-02-27T00:47:21.907Z,3.700
2023-02-27T00:48:22.273Z,3.5
2023-02-27T00:49:21.994Z,3.599
2023-02-27T00:50:22.972Z,3.5
2023-02-27T00:51:22.542Z,3.599
2023-02-27T00:53:22.464Z,3.5
2023-02-27T00:54:22.590Z,3.299
2023-02-27T00:55:22.665Z,3.400
2023-02-27T00:57:21.748Z,3.099
2023-02-27T00:58:21.645Z,3.299
2023-02-27T00:59:21.755Z,3.400
2023-02-27T01:00:24.564Z,3.5
2023-02-27T01:02:23.012Z,3.799
2023-02-27T01:03:21.951Z,3.400
2023-02-27T01:04:21.670Z,3.200
2023-02-27T01:06:22.560Z,3.5
2023-02-27T01:07:22.762Z,3.400
2023-02-27T01:08:22.324Z,2.900
2023-02-27T01:09:22.068Z,3.400
2023-02-27T01:12:22.388Z,3.299
2023-02-27T01:13:22.115Z,3.200
2023-02-27T01:14:21.458Z,3.599
2023-02-27T01:15:22.959Z,3.200
2023-02-27T01:18:21.881Z,3.299
2023-02-27T01:19:22.092Z,3
2023-02-27T01:21:22.522Z,3.099
2023-02-27T01:22:22.649Z,3.299
2023-02-27T01:23:22.405Z,3.099
2023-02-27T01:24:22.307Z,3.200
2023-02-27T01:25:22.663Z,3.299
2023-02-27T01:26:22.200Z,3.099
2023-02-27T01:27:22.311Z,3.299
2023-02-27T01:28:22.304Z,3
2023-02-27T01:29:21.933Z,3.400
2023-02-27T01:30:22.253Z,3.200
2023-02-27T01:31:21.786Z,3.099
2023-02-27T01:33:21.832Z,3
2023-02-27T01:34:22.285Z,3.200
2023-02-27T01:35:22.646Z,2.799
2023-02-27T01:36:22.307Z,2.900
2023-02-27T01:38:22.075Z,3.200
2023-02-27T01:39:22.251Z,2.799
2023-02-27T01:40:22.132Z,3.099
2023-02-27T01:41:21.779Z,3.200
2023-02-27T01:42:22.373Z,2.900
2023-02-27T01:43:21.812Z,3.200
2023-02-27T01:44:21.981Z,2.799
2023-02-27T01:46:23.045Z,3.200
2023-02-27T01:47:22.230Z,3.299
2023-02-27T01:49:22.054Z,2.900
2023-02-27T01:50:22.905Z,2.799
2023-02-27T01:51:22.627Z,3.099
2023-02-27T01:52:22.364Z,2.799
2023-02-27T01:53:22.021Z,2.900
2023-02-27T01:55:22.308Z,3
2023-02-27T01:56:21.664Z,2.799
2023-02-27T01:57:22.423Z,3.099
2023-02-27T01:59:22.497Z,3
2023-02-27T02:00:23.035Z,2.900
2023-02-27T02:01:23.073Z,3
2023-02-27T02:03:22.143Z,3.299
2023-02-27T02:04:26.842Z,2.900
2023-02-27T02:05:22.928Z,3
2023-02-27T02:06:22.303Z,2.799
2023-02-27T02:07:22.273Z,2.700
2023-02-27T02:08:22.111Z,2.799
2023-02-27T02:09:21.862Z,3.099
2023-02-27T02:11:22.264Z,3
2023-02-27T02:12:22.247Z,2.900
2023-02-27T02:13:21.874Z,2.799
2023-02-27T02:14:22.241Z,3
2023-02-27T02:16:22.476Z,2.900
2023-02-27T02:17:22.090Z,3
2023-02-27T02:18:22.493Z,2.900
2023-02-27T02:19:21.664Z,2.799
2023-02-27T02:20:21.807Z,3
2023-02-27T02:21:22.286Z,3.099
2023-02-27T02:24:22.035Z,2.700
2023-02-27T02:25:22.339Z,3
2023-02-27T02:27:22.641Z,2.700
2023-02-27T02:28:35.893Z,3
2023-02-27T02:29:22.182Z,2.900
2023-02-27T02:30:22.393Z,3.099
2023-02-27T02:31:22.372Z,2.799
2023-02-27T02:33:22.283Z,3
2023-02-27T02:34:22.775Z,2.799
2023-02-27T02:36:22.247Z,2.900
2023-02-27T02:37:21.637Z,2.700
2023-02-27T02:38:22.058Z,2.799
2023-02-27T02:39:22.122Z,3
2023-02-27T02:40:22.483Z,2.799
2023-02-27T02:41:22.605Z,2.599
2023-02-27T02:42:21.810Z,3.200
2023-02-27T02:43:21.833Z,2.799
2023-02-27T02:44:22.244Z,2.700
2023-02-27T02:45:22.476Z,2.799
2023-02-27T02:47:22.520Z,3
2023-02-27T02:48:22.047Z,2.700
2023-02-27T02:49:22.752Z,2.799
2023-02-27T02:50:22.837Z,3
2023-02-27T02:51:22.403Z,2.900
2023-02-27T02:53:22.105Z,3.200
2023-02-27T02:56:22.675Z,3
2023-02-27T02:57:22.229Z,2.900
2023-02-27T02:59:23.038Z,2.799
2023-02-27T03:00:24.378Z,3
2023-02-27T03:01:22.588Z,3.099
2023-02-27T03:02:22.825Z,2.900
2023-02-27T03:04:21.778Z,2.799
2023-02-27T03:05:22.672Z,2.900
2023-02-27T03:06:22.070Z,2.799
2023-02-27T03:07:22.487Z,2.700
2023-02-27T03:08:22.052Z,2.599
2023-02-27T03:09:22.575Z,2.900
2023-02-27T03:10:22.817Z,2.799
2023-02-27T03:11:22.278Z,2.700
2023-02-27T03:14:22.116Z,2.799
2023-02-27T03:15:21.811Z,3
2023-02-27T03:16:22.651Z,2.900
2023-02-27T03:19:22.072Z,2.599
2023-02-27T03:20:22.079Z,2.900
2023-02-27T03:21:22.711Z,2.599
2023-02-27T03:22:21.426Z,2.700
2023-02-27T03:23:22.232Z,2.400
2023-02-27T03:24:21.636Z,2.5
2023-02-27T03:25:21.845Z,2.700
2023-02-27T03:26:21.467Z,2.900
2023-02-27T03:27:21.668Z,2.599
2023-02-27T03:28:22.200Z,2.900
2023-02-27T03:29:22.143Z,2.599
2023-02-27T03:30:22.272Z,3
2023-02-27T03:31:21.843Z,2.799
2023-02-27T03:32:22.518Z,2.900
2023-02-27T03:33:21.784Z,2.599
2023-02-27T03:34:22.003Z,2.900
2023-02-27T03:35:22.086Z,3
2023-02-27T03:36:23.214Z,2.799
2023-02-27T03:37:22.156Z,2.400
2023-02-27T03:38:21.811Z,2.900
2023-02-27T03:39:22.532Z,2.599
2023-02-27T03:41:22.427Z,2.799
2023-02-27T03:42:22.348Z,2.900
2023-02-27T03:44:22.450Z,3
2023-02-27T03:45:22.716Z,3.200
2023-02-27T03:46:21.991Z,3
2023-02-27T03:47:22.474Z,2.900
2023-02-27T03:50:22.434Z,2.799
2023-02-27T03:51:22.466Z,2.900
2023-02-27T03:52:22.998Z,3.200
2023-02-27T03:53:21.556Z,2.599
2023-02-27T03:54:22.394Z,3.099
2023-02-27T03:55:22.215Z,2.900
2023-02-27T03:56:21.987Z,3.200
2023-02-27T03:57:22.243Z,2.799
2023-02-27T03:58:21.948Z,2.900
2023-02-27T03:59:22.021Z,3
2023-02-27T04:00:23.496Z,2.900
2023-02-27T04:01:23.037Z,3.099
2023-02-27T04:03:22.416Z,2.799
2023-02-27T04:04:22.533Z,2.900
2023-02-27T04:06:22.155Z,2.700
2023-02-27T04:07:22.124Z,2.799
2023-02-27T04:10:23.142Z,2.900
2023-02-27T04:11:23.118Z,2.799
2023-02-27T04:12:23.019Z,2.900
2023-02-27T04:13:22.357Z,2.5
2023-02-27T04:14:22.817Z,3
2023-02-27T04:15:22.761Z,2.799
2023-02-27T04:16:22.303Z,2.700
2023-02-27T04:17:22.715Z,2.799
2023-02-27T04:18:22.458Z,3
2023-02-27T04:19:22.577Z,3.099
2023-02-27T04:20:22.769Z,2.799
2023-02-27T04:22:21.832Z,3
2023-02-27T04:23:21.533Z,2.799
2023-02-27T04:25:21.963Z,3
2023-02-27T04:27:22.115Z,3.099
2023-02-27T04:28:22.673Z,2.900
2023-02-27T04:29:22.219Z,2.700
2023-02-27T04:30:23.549Z,2.799
2023-02-27T04:31:23.150Z,2.900
2023-02-27T04:32:23.169Z,3.099
2023-02-27T04:33:22.348Z,3
2023-02-27T04:34:22.996Z,2.900
2023-02-27T04:35:22.582Z,2.700
2023-02-27T04:36:22.221Z,3.299
2023-02-27T04:37:22.391Z,2.799
2023-02-27T04:38:22.429Z,3.200
2023-02-27T04:39:27.526Z,2.799
2023-02-27T04:40:23.287Z,3.099
2023-02-27T04:41:27.594Z,2.599
2023-02-27T04:42:22.894Z,2.900
2023-02-27T04:43:22.035Z,2.799
2023-02-27T04:44:22.488Z,2.700
2023-02-27T04:45:22.620Z,3
2023-02-27T04:47:22.938Z,2.799
2023-02-27T04:48:22.186Z,2.900
2023-02-27T04:49:23.036Z,2.799
2023-02-27T04:50:23.153Z,2.599
2023-02-27T04:51:22.346Z,2.900
2023-02-27T04:52:22.292Z,2.799
2023-02-27T04:56:23.112Z,2.900
2023-02-27T04:58:24.394Z,2.799
2023-02-27T05:01:23.266Z,3.099
2023-02-27T05:02:23.298Z,3
2023-02-27T05:03:22.527Z,2.799
2023-02-27T05:05:23.175Z,3
2023-02-27T05:06:22.825Z,2.700
2023-02-27T05:07:41.679Z,2.799
2023-02-27T05:09:22.426Z,3
2023-02-27T05:10:24.056Z,3.099
2023-02-27T05:11:41.606Z,3
2023-02-27T05:12:22.648Z,2.900
2023-02-27T05:14:22.211Z,2.700
2023-02-27T05:15:42.428Z,3
2023-02-27T05:16:23.222Z,2.900
2023-02-27T05:17:22.424Z,3.200
2023-02-27T05:18:22.678Z,3
2023-02-27T05:19:44.195Z,3.099
2023-02-27T05:20:22.996Z,3
2023-02-27T05:21:22.427Z,2.900
2023-02-27T05:23:22.159Z,3.099
2023-02-27T05:24:22.593Z,3.299
2023-02-27T05:25:23.007Z,3
2023-02-27T05:26:22.794Z,3.099
2023-02-27T05:28:24.589Z,2.900
2023-02-27T05:29:22.555Z,3.099
2023-02-27T05:30:22.960Z,3
2023-02-27T05:32:24.811Z,3.400
2023-02-27T05:33:22.821Z,3.200
2023-02-27T05:34:23.025Z,3.099
2023-02-27T05:38:23.112Z,3.299
2023-02-27T05:39:22.511Z,3.099
2023-02-27T05:41:23.316Z,3.5
2023-02-27T05:42:23.549Z,3.200
2023-02-27T05:43:22.915Z,3
2023-02-27T05:44:22.554Z,2.900
2023-02-27T05:45:23.271Z,3.299
2023-02-27T05:46:22.578Z,2.900
2023-02-27T05:47:22.568Z,3.299
2023-02-27T05:48:22.679Z,3
2023-02-27T05:50:23.263Z,2.900
2023-02-27T05:51:22.779Z,3.299
2023-02-27T05:52:23.047Z,3
2023-02-27T05:54:22.551Z,3.200
2023-02-27T05:55:23.208Z,3
2023-02-27T05:57:23.033Z,2.799
2023-02-27T05:58:22.438Z,3
2023-02-27T05:59:22.727Z,3.299
2023-02-27T06:00:23.826Z,3
2023-02-27T06:01:22.878Z,3.200
2023-02-27T06:02:23.225Z,3
2023-02-27T06:03:23.941Z,3.200
2023-02-27T06:04:22.944Z,3.099
2023-02-27T06:06:23.551Z,3.400
2023-02-27T06:08:22.912Z,3.099
2023-02-27T06:10:23.252Z,3
2023-02-27T06:12:23.877Z,3.299
2023-02-27T06:13:23.782Z,3.400
2023-02-27T06:14:23.839Z,3.299
2023-02-27T06:15:23.197Z,3.200
2023-02-27T06:16:23.145Z,3
2023-02-27T06:18:23.396Z,3.299
2023-02-27T06:19:23.895Z,3.099
2023-02-27T06:20:23.224Z,3.299
2023-02-27T06:21:23.263Z,3.200
2023-02-27T06:22:22.975Z,3.099
2023-02-27T06:23:23.065Z,3.299
2023-02-27T06:24:23.143Z,2.900
2023-02-27T06:25:23.574Z,3.299
2023-02-27T06:28:23.865Z,3.200
2023-02-27T06:29:23.202Z,3.5
2023-02-27T06:30:24.159Z,3.400
2023-02-27T06:32:22.945Z,3
2023-02-27T06:33:23.170Z,3.299
2023-02-27T06:34:23.196Z,3
2023-02-27T06:35:23.266Z,3.200
2023-02-27T06:36:23.134Z,3.299
2023-02-27T06:37:22.652Z,3.099
2023-02-27T06:38:22.979Z,3.400
2023-02-27T06:39:23.932Z,3.299
2023-02-27T06:40:22.980Z,3.099
2023-02-27T06:41:23.084Z,3.200
2023-02-27T06:42:22.651Z,3.599
2023-02-27T06:43:22.480Z,3.099
2023-02-27T06:45:23.515Z,3.5
2023-02-27T06:46:22.436Z,3.299
2023-02-27T06:48:22.925Z,3.099
2023-02-27T06:49:22.660Z,3.599
2023-02-27T06:50:23.766Z,3.299
2023-02-27T06:51:23.254Z,3.200
2023-02-27T06:52:22.727Z,3.099
2023-02-27T06:53:22.431Z,2.900
2023-02-27T06:54:22.401Z,3.099
2023-02-27T06:55:23.043Z,3
2023-02-27T06:56:22.629Z,3.099
2023-02-27T06:57:23.398Z,3.200
2023-02-27T06:58:28.343Z,3.099
2023-02-27T06:59:23.082Z,3.200
2023-02-27T07:00:25.925Z,3.299
2023-02-27T07:01:24.107Z,3
2023-02-27T07:02:28.023Z,2.900
2023-02-27T07:03:23.471Z,3.200
2023-02-27T07:04:23.450Z,3.400
2023-02-27T07:05:24.859Z,3.599
2023-02-27T07:07:33.199Z,3.5
2023-02-27T07:07:33.907Z,3.400
2023-02-27T07:08:23.992Z,3.599
2023-02-27T07:09:23.254Z,3.400
2023-02-27T07:10:23.743Z,3.5
2023-02-27T07:12:23.237Z,3.700
2023-02-27T07:14:23.346Z,3.299
2023-02-27T07:15:24.603Z,3.200
2023-02-27T07:16:23.241Z,3.700
2023-02-27T07:17:22.840Z,4.400
2023-02-27T07:18:23.233Z,5.099
2023-02-27T07:19:22.834Z,5.5
2023-02-27T07:20:23.397Z,6.800
2023-02-27T07:21:23.585Z,7.699
2023-02-27T07:22:23.192Z,9.5
2023-02-27T07:23:22.673Z,11.19
2023-02-27T07:24:23.014Z,11.60
2023-02-27T07:25:22.988Z,11.39
2023-02-27T07:26:23.552Z,11.89
2023-02-27T07:27:23.018Z,10.39
2023-02-27T07:28:22.693Z,10
2023-02-27T07:29:23.428Z,8.899
2023-02-27T07:30:23.599Z,7.900
2023-02-27T07:31:23.158Z,7.599
2023-02-27T07:32:23.426Z,7.199
2023-02-27T07:33:23.220Z,6.599
2023-02-27T07:34:22.886Z,6.300
2023-02-27T07:35:24.082Z,6.199
2023-02-27T07:36:42.258Z,5.800
2023-02-27T07:37:23.205Z,5.400
2023-02-27T07:38:22.733Z,5.800
2023-02-27T07:39:23.633Z,5.5
2023-02-27T07:40:23.289Z,5.199
2023-02-27T07:41:30.428Z,5.099
2023-02-27T07:42:23.394Z,5.400
2023-02-27T07:43:23.177Z,4.900
2023-02-27T07:44:23.778Z,5
2023-02-27T07:45:23.951Z,4.699
2023-02-27T07:46:23.140Z,5
2023-02-27T07:47:23.513Z,4.800
2023-02-27T07:48:22.959Z,4.699
2023-02-27T07:49:23.102Z,4.400
2023-02-27T07:50:23.341Z,4.900
2023-02-27T07:51:23.067Z,5.300
2023-02-27T07:52:23.816Z,5.599
2023-02-27T07:53:23.170Z,5.300
2023-02-27T07:54:23.769Z,5.099
2023-02-27T07:55:23.278Z,5.800
2023-02-27T07:56:23.001Z,5.900
2023-02-27T07:57:23.223Z,5.5
2023-02-27T07:58:23.480Z,5.099
2023-02-27T08:01:27.188Z,4.5
2023-02-27T08:03:23.193Z,4.599
2023-02-27T08:04:23.154Z,4.300
2023-02-27T08:07:22.932Z,4.400
2023-02-27T08:09:23.561Z,4.300
2023-02-27T08:11:22.867Z,4
2023-02-27T08:14:34.194Z,4.599
2023-02-27T08:15:23.475Z,4
2023-02-27T08:16:22.908Z,3.900
2023-02-27T08:17:23.402Z,4.199
2023-02-27T08:18:23.165Z,4.400
2023-02-27T08:19:23.314Z,4.199
2023-02-27T08:20:23.135Z,4.900
2023-02-27T08:21:22.706Z,4.800
2023-02-27T08:23:22.964Z,4.900
2023-02-27T08:24:23.336Z,5
2023-02-27T08:25:23.186Z,4.800
2023-02-27T08:26:23.123Z,5
2023-02-27T08:27:23.601Z,4.699
2023-02-27T08:28:22.817Z,5.300
2023-02-27T08:29:23.879Z,4.699
2023-02-27T08:30:28.029Z,4.900
2023-02-27T08:31:23.405Z,5.099
2023-02-27T08:32:23.890Z,4.800
2023-02-27T08:33:23.528Z,4.300
2023-02-27T08:36:23.264Z,4
2023-02-27T08:37:23.296Z,3.799
2023-02-27T08:38:26.013Z,4.099
2023-02-27T08:39:22.758Z,4
2023-02-27T08:40:23.912Z,3.900
2023-02-27T08:41:23.397Z,3.599
2023-02-27T08:42:23.699Z,3.799
2023-02-27T08:43:23.183Z,3.5
2023-02-27T08:45:23.476Z,3.299
2023-02-27T08:47:23.222Z,3.400
2023-02-27T08:48:23.643Z,3.200
2023-02-27T08:50:24.276Z,3.5
2023-02-27T08:51:22.663Z,3.200
2023-02-27T08:52:24.936Z,3.5
2023-02-27T08:53:23.412Z,3.400
2023-02-27T08:54:23.008Z,3.5
2023-02-27T08:55:22.714Z,3.299
2023-02-27T08:56:23.131Z,3
2023-02-27T08:57:23.506Z,3.299
2023-02-27T08:59:23.445Z,3.200
2023-02-27T09:00:24.880Z,2.799
2023-02-27T09:01:23.394Z,2.599
2023-02-27T09:02:23.619Z,2.5
2023-02-27T09:03:23.602Z,2.900
2023-02-27T09:05:22.778Z,2.700
2023-02-27T09:06:25.088Z,2.5
2023-02-27T09:07:23.577Z,2.599
2023-02-27T09:09:23.693Z,2.700
2023-02-27T09:10:23.210Z,2.599
2023-02-27T09:11:23.183Z,2.700
2023-02-27T09:12:22.990Z,2.599
2023-02-27T09:14:23.046Z,2.400
2023-02-27T09:15:23.069Z,2.5
2023-02-27T09:17:22.184Z,2.700
2023-02-27T09:18:22.490Z,3
2023-02-27T09:19:22.544Z,2.599
2023-02-27T09:20:22.599Z,3.099
2023-02-27T09:21:22.984Z,2.900
2023-02-27T09:22:22.527Z,2.799
2023-02-27T09:23:23.443Z,2.700
2023-02-27T09:24:23.309Z,2.900
2023-02-27T09:25:22.854Z,2.799
2023-02-27T09:26:35.726Z,2.700
2023-02-27T09:27:23.052Z,2.5
2023-02-27T09:28:23.087Z,2.099
2023-02-27T09:29:22.602Z,2.5
2023-02-27T09:30:22.550Z,2.200
2023-02-27T09:31:22.608Z,2.299
2023-02-27T09:32:22.825Z,2.200
2023-02-27T09:33:23.291Z,2.099
2023-02-27T09:34:22.666Z,1.799
2023-02-27T09:35:23.733Z,2.200
2023-02-27T09:37:23.109Z,2.099
2023-02-27T09:38:23.272Z,1.799
2023-02-27T09:40:23.423Z,1.700
2023-02-27T09:42:23.402Z,1.799
2023-02-27T09:43:22.847Z,1.700
2023-02-27T09:44:33.441Z,1.799
2023-02-27T09:45:22.819Z,1.700
2023-02-27T09:46:22.482Z,1.600
2023-02-27T09:47:23.065Z,2
2023-02-27T09:48:22.533Z,1.700
2023-02-27T09:49:22.524Z,1.799
2023-02-27T09:50:23.228Z,2.200
2023-02-27T09:51:22.763Z,1.799
2023-02-27T09:52:23.089Z,1.700
2023-02-27T09:53:22.588Z,1.5
2023-02-27T09:54:23.151Z,1.700
2023-02-27T09:55:23.135Z,1.600
2023-02-27T09:56:23.040Z,1.399
2023-02-27T09:57:23.398Z,1.899
2023-02-27T09:58:22.402Z,1.700
2023-02-27T10:00:24.492Z,1.600
2023-02-27T10:02:22.896Z,1.799
2023-02-27T10:03:22.754Z,2
2023-02-27T10:07:42.220Z,1.700
2023-02-27T10:08:22.781Z,1.799
2023-02-27T10:10:23.135Z,1.700
2023-02-27T10:11:23.488Z,1.899
2023-02-27T10:12:23.428Z,1.700
2023-02-27T10:13:23.440Z,1.799
2023-02-27T10:17:23.136Z,1.700
2023-02-27T10:18:27.643Z,1.899
2023-02-27T10:19:22.643Z,1.600
2023-02-27T10:20:22.622Z,1.5
2023-02-27T10:21:22.980Z,1.600
2023-02-27T10:22:22.675Z,1.5
2023-02-27T10:23:23.518Z,1.799
2023-02-27T10:24:22.556Z,1.899
2023-02-27T10:25:30.266Z,1.799
2023-02-27T10:26:24.120Z,1.700
2023-02-27T10:29:22.498Z,2
2023-02-27T10:30:29.236Z,1.700
2023-02-27T10:32:22.777Z,1.899
2023-02-27T10:34:22.862Z,1.600
2023-02-27T10:36:32.951Z,1.799
2023-02-27T10:39:22.289Z,1.700
2023-02-27T10:40:22.898Z,1.600
2023-02-27T10:41:23.449Z,1.700
2023-02-27T10:42:22.549Z,1.799
2023-02-27T10:44:22.559Z,1.899
2023-02-27T10:45:23.714Z,1.700
2023-02-27T10:46:22.150Z,1.799
2023-02-27T10:49:22.661Z,1.700
2023-02-27T10:50:23.945Z,1.899
2023-02-27T10:51:22.703Z,1.799
2023-02-27T10:52:23.753Z,1.700
2023-02-27T10:53:22.832Z,1.600
2023-02-27T10:54:22.657Z,1.799
2023-02-27T10:58:23.242Z,1.600
2023-02-27T10:59:23.331Z,1.899
2023-02-27T11:00:26.023Z,1.799
2023-02-27T11:01:23.469Z,1.700
2023-02-27T11:02:23.772Z,1.799
2023-02-27T11:05:22.773Z,1.700
2023-02-27T11:06:23.281Z,1.799
2023-02-27T11:07:22.113Z,1.700
2023-02-27T11:08:22.574Z,1.799
2023-02-27T11:09:22.936Z,2.099
2023-02-27T11:10:23.110Z,1.700
2023-02-27T11:12:22.501Z,1.600
2023-02-27T11:13:22.562Z,1.799
2023-02-27T11:14:22.684Z,1.600
2023-02-27T11:15:22.996Z,1.899
2023-02-27T11:16:23.207Z,1.700
2023-02-27T11:17:23.330Z,1.799
2023-02-27T11:19:23.402Z,1.899
2023-02-27T11:20:23.426Z,1.799
2023-02-27T11:22:23.223Z,1.600
2023-02-27T11:23:22.615Z,1.799
2023-02-27T11:24:22.501Z,1.700
2023-02-27T11:25:23.211Z,1.899
2023-02-27T11:26:22.248Z,1.799
2023-02-27T11:28:23.360Z,2.099
2023-02-27T11:29:23.308Z,1.899
2023-02-27T11:30:26.442Z,2
2023-02-27T11:31:22.896Z,1.799
2023-02-27T11:32:24.148Z,1.899
2023-02-27T11:34:23.614Z,1.700
2023-02-27T11:35:22.887Z,1.799
2023-02-27T11:36:21.812Z,1.5
2023-02-27T11:37:23.268Z,2.299
2023-02-27T11:38:23.529Z,2
2023-02-27T11:39:23.248Z,1.700
2023-02-27T11:40:22.801Z,2
2023-02-27T11:41:23.690Z,1.799
2023-02-27T11:42:23.220Z,1.600
2023-02-27T11:43:22.432Z,1.5
2023-02-27T11:44:34.040Z,1.799
2023-02-27T11:46:41.181Z,1.899
2023-02-27T11:48:22.880Z,2
2023-02-27T11:49:22.747Z,1.600
2023-02-27T11:51:23.095Z,1.700
2023-02-27T11:52:27.852Z,1.799
2023-02-27T11:53:22.533Z,1.700
2023-02-27T11:54:27.848Z,1.799
2023-02-27T11:55:23.546Z,1.700
2023-02-27T11:56:22.628Z,1.799
2023-02-27T11:57:22.568Z,1.600
2023-02-27T11:58:22.594Z,1.700
2023-02-27T11:59:22.882Z,1.600
2023-02-27T12:02:30.885Z,1.799
2023-02-27T12:03:23.139Z,1.5
2023-02-27T12:04:31.534Z,1.600
2023-02-27T12:07:23.285Z,2
2023-02-27T12:08:22.850Z,2.400
2023-02-27T12:09:22.799Z,1.799
2023-02-27T12:11:23.046Z,1.899
2023-02-27T12:12:22.403Z,1.600
2023-02-27T12:13:23.171Z,1.5
2023-02-27T12:14:23.023Z,1.799
2023-02-27T12:15:22.917Z,1.399
2023-02-27T12:16:36.854Z,1.600
2023-02-27T12:17:23.190Z,1.399
2023-02-27T12:19:22.514Z,1.600
2023-02-27T12:20:23.260Z,1.399
2023-02-27T12:21:22.675Z,1.5
2023-02-27T12:22:22.814Z,1.399
2023-02-27T12:24:23.156Z,1.5
2023-02-27T12:25:23.013Z,1.299
2023-02-27T12:26:22.730Z,1.100
2023-02-27T12:27:23.791Z,1.299
2023-02-27T12:29:22.801Z,1.399
2023-02-27T12:30:22.777Z,1.299
2023-02-27T12:31:23.643Z,1.600
2023-02-27T12:32:22.812Z,1.200
2023-02-27T12:33:22.408Z,1.100
2023-02-27T12:35:22.842Z,1.200
2023-02-27T12:38:23.309Z,1.100
2023-02-27T12:39:23.002Z,1.299
2023-02-27T12:40:23.253Z,1.200
2023-02-27T12:42:22.983Z,1.299
2023-02-27T12:43:22.904Z,1.100
2023-02-27T12:45:23.062Z,1.399
2023-02-27T12:46:23.137Z,1
2023-02-27T12:47:22.614Z,1.299
2023-02-27T12:48:22.709Z,1.100
2023-02-27T12:49:22.572Z,1.200
2023-02-27T12:51:23.661Z,0.899
2023-02-27T12:52:23.148Z,1
2023-02-27T12:53:22.856Z,1.100
2023-02-27T12:54:22.962Z,1.200
2023-02-27T12:55:23.139Z,1
2023-02-27T12:56:24.018Z,1.100
2023-02-27T12:57:23.025Z,0.699
2023-02-27T12:59:22.771Z,0.899
2023-02-27T13:01:23.329Z,0.699
2023-02-27T13:02:23.064Z,0.899
2023-02-27T13:03:22.423Z,0.800
2023-02-27T13:04:23.372Z,1
2023-02-27T13:05:22.790Z,1.399
2023-02-27T13:08:22.592Z,1.299
2023-02-27T13:09:22.974Z,1.200
2023-02-27T13:11:22.702Z,1
2023-02-27T13:12:22.823Z,0.800
2023-02-27T13:13:23.322Z,0.600
2023-02-27T13:14:23.111Z,1
2023-02-27T13:15:24.501Z,0.699
2023-02-27T13:16:22.568Z,0.899
2023-02-27T13:17:23.940Z,0.800
2023-02-27T13:18:23.641Z,0.699
2023-02-27T13:20:23.546Z,0.899
2023-02-27T13:21:23.601Z,0.600
2023-02-27T13:22:23.582Z,0.699
2023-02-27T13:24:24.293Z,0.800
2023-02-27T13:25:24.095Z,0.899
2023-02-27T13:26:23.383Z,1
2023-02-27T13:28:23.219Z,0.899
2023-02-27T13:29:23.472Z,0.800
2023-02-27T13:31:23.172Z,0.699
2023-02-27T13:32:30.007Z,0.899
2023-02-27T13:33:23.924Z,0.800
2023-02-27T13:34:22.935Z,0.899
2023-02-27T13:36:24.444Z,0.800
2023-02-27T13:37:22.649Z,0.600
2023-02-27T13:38:23.074Z,0.899
2023-02-27T13:39:23.064Z,0.800
2023-02-27T13:40:23.293Z,0.699
2023-02-27T13:41:22.785Z,0.899
2023-02-27T13:42:23.361Z,0.600
2023-02-27T13:43:22.631Z,1
2023-02-27T13:44:22.407Z,0.899
2023-02-27T13:45:23.128Z,0.800
2023-02-27T13:46:23.297Z,1
2023-02-27T13:47:22.952Z,0.899
2023-02-27T13:51:23.350Z,0.600
2023-02-27T13:52:22.853Z,1
2023-02-27T13:54:22.873Z,0.899
2023-02-27T13:55:23.585Z,0.699
2023-02-27T13:57:22.953Z,0.800
2023-02-27T13:59:22.889Z,0.899
2023-02-27T14:01:23.304Z,0.800
2023-02-27T14:02:23.169Z,0.699
2023-02-27T14:03:22.396Z,0.899
2023-02-27T14:04:23.991Z,0.699
2023-02-27T14:05:23.156Z,0.800
2023-02-27T14:07:23.118Z,1.200
2023-02-27T14:08:22.758Z,1
2023-02-27T14:09:23.780Z,1.100
2023-02-27T14:10:23.014Z,1
2023-02-27T14:15:23.887Z,0.899
2023-02-27T14:16:23.800Z,0.800
2023-02-27T14:17:28.197Z,0.899
2023-02-27T14:19:22.962Z,0.800
2023-02-27T14:20:23.619Z,1
2023-02-27T14:21:23.262Z,1.200
2023-02-27T14:22:23.150Z,1.399
2023-02-27T14:23:28.543Z,1.5
2023-02-27T14:24:22.881Z,1
2023-02-27T14:25:23.748Z,1.100
2023-02-27T14:26:22.914Z,1
2023-02-27T14:27:23.252Z,1.100
2023-02-27T14:28:23.246Z,1.700
2023-02-27T14:29:23.535Z,1.299
2023-02-27T14:30:23.569Z,0.899
2023-02-27T14:31:31.277Z,1
2023-02-27T14:32:23.230Z,1.100
2023-02-27T14:34:23.189Z,1
2023-02-27T14:35:23.968Z,0.800
2023-02-27T14:36:23.046Z,1
2023-02-27T14:37:23.531Z,1.100
2023-02-27T14:38:22.451Z,0.899
2023-02-27T14:40:29.634Z,1
2023-02-27T14:41:23.142Z,0.899
2023-02-27T14:42:23.357Z,1
2023-02-27T14:43:23.626Z,0.800
2023-02-27T14:44:23.950Z,0.899
2023-02-27T14:45:37.349Z,1
2023-02-27T14:46:22.248Z,0.899
2023-02-27T14:47:22.676Z,1.100
2023-02-27T14:48:22.733Z,1
2023-02-27T14:49:23.054Z,1.100
2023-02-27T14:51:23.353Z,0.899
2023-02-27T14:52:22.824Z,0.800
2023-02-27T14:53:23.064Z,0.899
2023-02-27T14:55:23.319Z,1.100
2023-02-27T14:56:23.731Z,0.899
2023-02-27T14:57:23.749Z,0.800
2023-02-27T14:58:23.546Z,1.299
2023-02-27T14:59:22.984Z,0.800
2023-02-27T15:01:23.543Z,1
2023-02-27T15:02:23.871Z,0.800
2023-02-27T15:03:23.485Z,0.699
2023-02-27T15:04:24.150Z,0.800
2023-02-27T15:06:23.169Z,0.899
2023-02-27T15:08:23.436Z,1.299
2023-02-27T15:09:22.681Z,1.100
2023-02-27T15:10:23.051Z,0.899
2023-02-27T15:11:22.897Z,1.200
2023-02-27T15:12:22.519Z,1
2023-02-27T15:13:23.278Z,1.100
2023-02-27T15:14:23.169Z,0.899
2023-02-27T15:16:26.576Z,0.800
2023-02-27T15:17:23.114Z,0.699
2023-02-27T15:18:23.102Z,0.899
2023-02-27T15:19:23.545Z,0.800
2023-02-27T15:20:23.303Z,1
2023-02-27T15:21:22.769Z,1.100
2023-02-27T15:22:37.476Z,1
2023-02-27T15:23:23.033Z,1.100
2023-02-27T15:24:22.958Z,0.899
2023-02-27T15:26:23.427Z,1.200
2023-02-27T15:27:23.215Z,0.800
2023-02-27T15:28:23.658Z,1
2023-02-27T15:29:23.530Z,0.899
2023-02-27T15:30:24.151Z,1
2023-02-27T15:31:23.307Z,0.800
2023-02-27T15:32:22.973Z,1
2023-02-27T15:34:24.220Z,1.100
2023-02-27T15:35:22.867Z,1.299
2023-02-27T15:36:23.375Z,1.200
2023-02-27T15:37:22.969Z,1.100
2023-02-27T15:39:23.476Z,0.899
2023-02-27T15:40:23.657Z,0.800
2023-02-27T15:42:26.783Z,1
2023-02-27T15:44:23.296Z,0.899
2023-02-27T15:45:23.645Z,1
2023-02-27T15:46:23.084Z,1.200
2023-02-27T15:47:23.554Z,1
2023-02-27T15:48:22.886Z,1.100
2023-02-27T15:49:23.285Z,1.200
2023-02-27T15:50:23.343Z,1.100
2023-02-27T15:51:23.046Z,1.200
2023-02-27T15:52:23.148Z,1.100
2023-02-27T15:53:23.207Z,1.200
2023-02-27T15:54:23.075Z,1.299
2023-02-27T15:55:23.145Z,1.200
2023-02-27T15:56:23.500Z,1.299
2023-02-27T15:59:23.322Z,1.100
2023-02-27T16:00:24.411Z,1.299
2023-02-27T16:01:24.294Z,1.399
2023-02-27T16:02:23.103Z,1.200
2023-02-27T16:03:22.515Z,1.399
2023-02-27T16:07:22.787Z,1.299
2023-02-27T16:08:22.898Z,1.200
2023-02-27T16:09:22.535Z,1.299
2023-02-27T16:10:23.621Z,1.200
2023-02-27T16:14:24.960Z,1.299
2023-02-27T16:15:23.229Z,1.399
2023-02-27T16:16:22.961Z,1.299
2023-02-27T16:17:23.938Z,1.399
2023-02-27T16:19:22.771Z,1.5
2023-02-27T16:20:23.662Z,1.700
2023-02-27T16:21:22.952Z,1.799
2023-02-27T16:22:22.553Z,1.899
2023-02-27T16:23:22.521Z,1.799
2023-02-27T16:24:23.338Z,1.700